Home > Products > Valid Products > MTR

000
SAUS42 KCHS 201557
MTRNBC
METAR KNBC 201556Z AUTO 05012KT 10SM FEW025 SCT043 OVC050 15/12
A3013 RMK AO2 RAE38 SLP204 P0003 T01500117





000
SAUS42 KCHS 201555
MTRNBC
SPECI KNBC 201554Z AUTO 05013KT 10SM SCT023 SCT043 OVC050 14/12
A3013 RMK AO2 RAE38 P0003





000
SAUS42 KCHS 201531
MTRNBC
SPECI KNBC 201531Z AUTO 02008KT 4SM -RA BR FEW008 SCT013 OVC021
13/12 A3014 RMK AO2 P0003 T01330117





000
SAUS42 KCHS 201525
MTRNBC
SPECI KNBC 201524Z AUTO 02008KT 2 1/2SM -RA BR SCT008 SCT013 OVC019
13/11 A3015 RMK AO2 P0003 T01280111





000
SAUS42 KCHS 201509
MTRNBC
SPECI KNBC 201507Z AUTO 01008KT 2 1/2SM -RA BR OVC008 13/11 A3015
RMK AO2 CIG 004V011 P0001 T01280111





000
SAUS42 KCHS 201458
MTRNBC
METAR KNBC 201456Z AUTO 01008KT 1 3/4SM RA BR OVC010 13/11 A3015 RMK
AO2 RAB24 CIG 006V013 SLP209 P0003 60003 T01280111 53020





000
SAUS42 KCHS 201439
MTRNBC
SPECI KNBC 201438Z AUTO 03006KT 1 3/4SM -RA BR OVC011 13/11 A3014
RMK AO2 RAB24 CIG 006V013 P0001 T01280106





000
SAUS42 KCHS 201357
MTRNBC
METAR KNBC 201356Z AUTO 05010KT 8SM OVC010 13/11 A3012 RMK AO2
RAE02B29E38 SLP198 P0000 T01280106





000
SAUS42 KCHS 201300 COR
MTRNBC
METAR KNBC 201256Z AUTO 05010KT 9SM -RA OVC011 12/10 A3010 RMK AO2
RAB52 SLP192 P0000 T01220100





000
SAUS42 KCHS 201258 COR
MTRNBC
METAR KNBC 201256Z AUTO 05010KT 9SM -RA OVC011 12/10 A3010 RMK AO2
RAB52 SLP192 P0000 T01220100





000
SAUS42 KCHS 201257
MTRNBC
METAR KNBC 201256Z AUTO 05010KT 9SM -RA OVC011 12/10 A3010 RMK AO2
RAB52 SLP192 P0000 T01220100





000
SAUS42 KCHS 201157
MTRNBC
METAR KNBC 201156Z AUTO 06009KT 10SM OVC011 12/10 A3009 RMK AO2
SLP189 60000 70003 T01220100 10122 20117 53013





000
SAUS42 KCHS 201057
MTRNBC
METAR KNBC 201056Z AUTO 06012KT 10SM OVC012 12/09 A3007 RMK AO2
SLP184 T01170094





000
SAUS42 KCHS 200957
MTRNBC
METAR KNBC 200956Z AUTO 05011KT 10SM OVC011 12/10 A3005 RMK AO2
SLP177 T01220100





000
SAUS42 KCHS 200921
MTRNBC
SPECI KNBC 200920Z AUTO 05009KT 10SM OVC010 12/10 A3005 RMK AO2
T01220100





000
SAUS42 KCHS 200857
MTRNBC
METAR KNBC 200856Z AUTO 04011KT 10SM OVC009 12/10 A3005 RMK AO2 CIG
007V013 SLP176 60000 T01220100 55001





000
SAUS42 KCHS 200757
MTRNBC
METAR KNBC 200756Z AUTO 05011KT 10SM OVC009 12/11 A3004 RMK AO2
SLP174 T01220106





000
SAUS42 KCHS 200717
MTRNBC
SPECI KNBC 200716Z AUTO 05011KT 9SM OVC009 12/11 A3004 RMK AO2 CIG
007V011 T01220106





000
SAUS42 KCHS 200657
MTRNBC
METAR KNBC 200656Z AUTO 05012KT 10SM OVC010 12/11 A3004 RMK AO2
RAB20E52 SLP172 P0000 T01220106





000
SAUS42 KCHS 200557
MTRNBC
METAR KNBC 200556Z AUTO 06013G21KT 10SM OVC010 12/10 A3005 RMK AO2
RAE03 CIG 007V013 SLP177 P0000 60003 T01220100 10144 20122 55008





000
SAUS42 KCHS 200544
MTRNBC
SPECI KNBC 200543Z AUTO 07012KT 10SM OVC009 12/11 A3006 RMK AO2
RAE03 CIG 007V012 P0000 T01220106





000
SAUS42 KCHS 200457
MTRNBC
METAR KNBC 200456Z AUTO 07013KT 10SM -RA SCT007 BKN012 OVC080 12/11
A3003 RMK AO2 SLP171 P0002 T01220106 401720122





000
SAUS42 KCHS 200455
MTRNBC
SPECI KNBC 200454Z AUTO 07013KT 8SM -RA BKN009 BKN036 OVC070 12/11
A3003 RMK AO2 P0002





000
SAUS42 KCHS 200423
MTRNBC
SPECI KNBC 200421Z AUTO 06012KT 3SM -RA BR SCT007 BKN013 OVC018
12/11 A3006 RMK AO2 P0001 T01220111





000
SAUS42 KCHS 200415
MTRNBC
SPECI KNBC 200414Z AUTO 07012KT 3SM -RA BR SCT008 OVC016 12/11 A3007
RMK AO2 P0000 T01220111





000
SAUS42 KCHS 200406
MTRNBC
SPECI KNBC 200405Z AUTO 06015KT 4SM -RA BR SCT008 BKN014 OVC019
12/11 A3007 RMK AO2 P0000 T01220106





000
SAUS42 KCHS 200357
MTRNBC
METAR KNBC 200356Z AUTO 06009KT 3SM -RA BR BKN009 OVC014 12/11 A3008
RMK AO2 RAE0259B18E30B46 SLP185 P0001 T01220111





000
SAUS42 KCHS 200307
MTRNBC
SPECI KNBC 200306Z AUTO 05005KT 6SM BR OVC008 13/12 A3007 RMK AO2
RAE0259 CIG 006V013 P0000 T01330117





000
SAUS42 KCHS 200257
MTRNBC
METAR KNBC 200256Z AUTO 05005KT 8SM -RA OVC010 13/12 A3007 RMK AO2
RAB37 TSB04E35 CIG 007V013 SLP183 P0000 60000 T01330117 53017





000
SAUS42 KCHS 200243
MTRNBC
SPECI KNBC 200241Z AUTO 07009KT 10SM -RA BKN011 OVC019 14/12 A3007
RMK AO2 RAB37 TSB04E35 P0000 T01390117





000
SAUS42 KCHS 200211
MTRNBC
SPECI KNBC 200210Z AUTO 06012KT 10SM TS OVC011 14/12 A3005 RMK AO2
TSB04 T01390117





000
SAUS42 KCHS 200157
MTRNBC
METAR KNBC 200156Z AUTO 06013G21KT 10SM OVC010 14/12 A3005 RMK AO2
RAE01 SLP175 P0000 T01390117





000
SAUS42 KCHS 200057
MTRNBC
METAR KNBC 200056Z AUTO 05013KT 10SM -RA OVC010 14/12 A3002 RMK AO2
RAB47 SLP167 P0000 T01390117





000
SAUS42 KCHS 200052
MTRNBC
SPECI KNBC 200051Z AUTO 05010KT 10SM -RA OVC010 14/12 A3002 RMK AO2
RAB47 P0000





000
SAUS42 KCHS 192357
MTRNBC
METAR KNBC 192356Z AUTO 04008KT 8SM OVC009 14/12 A3001 RMK AO2 CIG
007V011 SLP162 T01440122 10172 20144 51006





000
SAUS42 KCHS 192354
MTRNBC
SPECI KNBC 192352Z AUTO 05009KT 6SM BR OVC009 14/13 A3001 RMK AO2
CIG 007V011





000
SAUS42 KCHS 192342
MTRNBC
SPECI KNBC 192341Z AUTO 06011KT 5SM BR OVC010 14/13 A3000 RMK AO2
CIG 008V011 T01440128





000
SAUS42 KCHS 192257
MTRNBC
METAR KNBC 192256Z AUTO 06014KT 10SM OVC009 14/13 A2999 RMK AO2
SLP157 T01440128





000
SAUS42 KCHS 192158
MTRNBC
METAR KNBC 192156Z AUTO 07011KT 10SM BKN009 OVC014 15/13 A2999 RMK
AO2 CIG 007V011 PRESRR SLP156 T01500128





000
SAUS42 KCHS 192146
MTRNBC
SPECI KNBC 192145Z AUTO 06010KT 10SM OVC009 15/13 A2998 RMK AO2 CIG
007V013 T01500128





000
SAUS42 KCHS 192130
MTRNBC
SPECI KNBC 192128Z AUTO 08013KT 10SM OVC010 16/13 A2996 RMK AO2 CIG
008V013 T01560128





000
SAUS42 KCHS 192057
MTRNBC
METAR KNBC 192056Z AUTO 07010KT 6SM BR OVC008 16/13 A2997 RMK AO2
SLP148 T01560133 53003





000
SAUS42 KCHS 191957
MTRNBC
METAR KNBC 191956Z AUTO 05012KT 3SM BR OVC006 16/14 A2996 RMK AO2
CIG 004V009 SLP145 T01560139





000
SAUS42 KCHS 191944
MTRNBC
SPECI KNBC 191943Z AUTO 07011KT 4SM BR OVC005 16/14 A2996 RMK AO2
CIG 004V009 T01560144





000
SAUS42 KCHS 191913
MTRNBC
SPECI KNBC 191912Z AUTO 06011KT 2SM BR OVC005 17/15 A2996 RMK AO2
T01670150





000
SAUS42 KCHS 191908
MTRNBC
SPECI KNBC 191907Z AUTO 06012KT 1 3/4SM BR OVC006 17/15 A2996 RMK
AO2 T01670150





000
SAUS42 KCHS 191857
MTRNBC
METAR KNBC 191856Z AUTO 06010KT 2SM BR OVC006 17/15 A2996 RMK AO2
CIG 004V008 SLP145 T01670150





000
SAUS42 KCHS 191854
MTRNBC
SPECI KNBC 191853Z AUTO 05011KT 2 1/2SM BR OVC007 17/15 A2996 RMK
AO2 CIG 004V008





000
SAUS42 KCHS 191757
MTRNBC
METAR KNBC 191756Z AUTO 07011KT 7SM OVC007 17/15 A2997 RMK AO2 CIG
005V010 SLP147 60000 T01670150 10172 20144 55004





000
SAUS42 KCHS 191657
MTRNBC
METAR KNBC 191656Z AUTO 07010KT 6SM BR OVC006 17/15 A2996 RMK AO2
CIG 005V009 SLP147 T01670150





000
SAUS42 KCHS 191557
MTRNBC
METAR KNBC 191556Z AUTO 06010KT 5SM BR OVC006 16/14 A2998 RMK AO2
CIG 004V010 SLP151 T01610144





000
SAUS42 KCHS 191538
MTRNBC
SPECI KNBC 191537Z AUTO 07010KT 2SM BR OVC005 16/14 A2998 RMK AO2
T01610144





000
SAUS42 KCHS 191528
MTRNBC
SPECI KNBC 191527Z AUTO 06010KT 1 3/4SM BR OVC005 16/14 A2998 RMK
AO2 T01610144





000
SAUS42 KCHS 191458
MTRNBC
METAR KNBC 191456Z AUTO 08012KT 9SM OVC005 16/14 A2998 RMK AO2 RAE17
SLP151 P0000 60000 T01560139 53008





000
SAUS42 KCHS 191427
MTRNBC
SPECI KNBC 191426Z AUTO 06009KT 3SM BR OVC005 16/14 A2997 RMK AO2
RAE17 P0000 T01560139





000
SAUS42 KCHS 191422
MTRNBC
SPECI KNBC 191421Z AUTO 06010KT 2 1/2SM BR OVC004 15/14 A2997 RMK
AO2 RAE17 CIG 003V007 P0000 T01500139





000
SAUS42 KCHS 191413
MTRNBC
SPECI KNBC 191412Z AUTO 06009KT 1 3/4SM -RA BR OVC004 16/14 A2996
RMK AO2 P0000 T01560139





000
SAUS42 KCHS 191357
MTRNBC
METAR KNBC 191356Z AUTO 07010KT 1 1/2SM -RA BR OVC004 15/13 A2996
RMK AO2 RAB56 SLP145 P0000 T01500133





000
SAUS42 KCHS 191342
MTRNBC
SPECI KNBC 191341Z AUTO 05007KT 1 1/2SM BR OVC004 15/14 A2996 RMK
AO2 T01500139





000
SAUS42 KCHS 191333
MTRNBC
SPECI KNBC 191332Z AUTO 06009KT 1 3/4SM BR OVC005 15/13 A2996 RMK
AO2 T01500133





000
SAUS42 KCHS 191257
MTRNBC
METAR KNBC 191256Z AUTO 05009KT 6SM BR OVC005 15/13 A2995 RMK AO2
SLP143 T01500133





000
SAUS42 KCHS 191230
MTRNBC
SPECI KNBC 191228Z AUTO 07010KT 8SM OVC006 14/13 A2995 RMK AO2
T01440133





000
SAUS42 KCHS 191157
MTRNBC
METAR KNBC 191156Z AUTO 06011KT 8SM OVC005 14/13 A2994 RMK AO2
SLP140 60003 70324 T01440133 10156 20144 53008





000
SAUS42 KCHS 191126
MTRNBC
SPECI KNBC 191125Z AUTO 06011KT 6SM BR OVC005 14/13 A2994 RMK AO2
CIG 004V008 T01440133





000
SAUS42 KCHS 191057
MTRNBC
METAR KNBC 191056Z AUTO 05010KT 5SM BR OVC004 14/13 A2993 RMK AO2
RAE38 SLP136 P0001 T01440133





000
SAUS42 KCHS 191019
MTRNBC
SPECI KNBC 191018Z AUTO 07009KT 3SM -RA BR BKN004 OVC015 14/13 A2993
RMK AO2 P0001 T01440133





000
SAUS42 KCHS 190957
MTRNBC
METAR KNBC 190956Z AUTO 05009KT 2 1/2SM -RA BR OVC004 14/13 A2993
RMK AO2 RAB21 SLP134 P0000 T01440133





000
SAUS42 KCHS 190914
MTRNBC
SPECI KNBC 190913Z AUTO 06008KT 2 1/2SM BR OVC004 15/14 A2992 RMK
AO2 T01500139





000
SAUS42 KCHS 190857
MTRNBC
METAR KNBC 190856Z AUTO 05007KT 4SM BR OVC004 15/14 A2992 RMK AO2
RAB14E25 SLP133 P0001 60002 T01500144 55008





000
SAUS42 KCHS 190809
MTRNBC
SPECI KNBC 190807Z AUTO 08008KT 3SM BR OVC004 16/14 A2992 RMK AO2
T01560144





000
SAUS42 KCHS 190757
MTRNBC
METAR KNBC 190756Z AUTO 08008KT 2 1/2SM BR OVC005 16/14 A2992 RMK
AO2 SLP132 T01560144





000
SAUS42 KCHS 190744
MTRNBC
SPECI KNBC 190743Z AUTO 08008KT 3SM BR OVC005 16/14 A2992 RMK AO2
T01560144





000
NZUS52 KCHS 190730
MTRCHL

METAR KCHL 190659Z MMMMMKT 15/  RMK PRECIP COUNTER 044.18 RH100








000
SAUS42 KCHS 190657
MTRNBC
METAR KNBC 190656Z AUTO 07009KT 10SM OVC007 16/14 A2993 RMK AO2
RAE17 SLP135 P0001 T01560144





000
SAUS42 KCHS 190557
MTRNBC
METAR KNBC 190556Z AUTO 11009KT 4SM RA BR OVC008 16/14 A2995 RMK AO2
RAB20 CIG 007V011 SLP141 P0002 60074 T01560144 10161 20150 58007





000
NZUS52 KCHS 190502
MTRCHL

METAR KCHL 190458Z COR 16/  RMK PRECIP COUNTER 043.45 RH100








000
SAUS42 KCHS 190457
MTRNBC
METAR KNBC 190456Z AUTO 10009G16KT 10SM OVC007 16/14 A2997 RMK AO2
SLP149 T01560139 401720139





000
SAUS42 KCHS 190357
MTRNBC
METAR KNBC 190356Z AUTO 11006KT 10SM OVC009 16/14 A2997 RMK AO2
RAE01B32E42 SLP150 P0000 T01560139





000
SAUS42 KCHS 190353
MTRNBC
SPECI KNBC 190352Z AUTO 11008G16KT 10SM OVC009 16/14 A2997 RMK AO2
RAE01B32E42 P0000





000
SAUS42 KCHS 190319
MTRNBC
SPECI KNBC 190318Z AUTO 11012G23KT 10SM BKN011 BKN038 OVC100 16/14
A2997 RMK AO2 RAE01 CIG 006V013 P0000 T01560139





000
NZUS52 KCHS 190309 CCA
MTRCHL

METAR KCHL 190257Z COR 16/  RMK PRECIP COUNTER 042.78 RH100








000
SAUS42 KCHS 190257
MTRNBC
METAR KNBC 190256Z AUTO 11014G23KT 10SM -RA BKN009 BKN044 OVC095
15/14 A2997 RMK AO2 RAE40B42 CIG 006V013 SLP149 P0001 60072
T01500139 58022





000
SAUS42 KCHS 190241
MTRNBC
SPECI KNBC 190240Z AUTO 10015G23KT 10SM BKN009 BKN046 OVC085 15/14
A2999 RMK AO2 RAE40 CIG 007V013 P0001 T01500139





000
SAUS42 KCHS 190230
MTRNBC
SPECI KNBC 190229Z AUTO 10012G20KT 10SM -RA SCT009 BKN046 OVC090
16/14 A3000 RMK AO2 P0001 T01560139





000
SAUS42 KCHS 190218
MTRNBC
SPECI KNBC 190217Z AUTO 11010G22KT 10SM -RA BKN009 BKN046 OVC085
16/14 A3000 RMK AO2 CIG 006V015 P0000 T01560139





000
SAUS42 KCHS 190205
MTRNBC
SPECI KNBC 190203Z AUTO 10012KT 10SM -RA SCT007 BKN011 OVC049 15/14
A3001 RMK AO2 P0000 T01500139





000
NZUS52 KCHS 190203 CCA
MTRCHL

METAR KCHL 190151Z COR 15/  RMK PRECIP COUNTER 042.40 RH100








000
SAUS42 KCHS 190157
MTRNBC
METAR KNBC 190156Z AUTO 10013KT 9SM -RA BKN009 OVC013 15/14 A3001
RMK AO2 SLP163 P0015 T01500139





000
SAUS42 KCHS 190143
MTRNBC
SPECI KNBC 190141Z AUTO 08010KT 7SM RA BKN009 OVC014 15/14 A3002 RMK
AO2 P0013 T01500139





000
SAUS42 KCHS 190136
MTRNBC
SPECI KNBC 190134Z AUTO 07010KT 6SM RA BR OVC012 15/14 A3002 RMK AO2
P0012 T01500139





000
NZUS52 KCHS 190123 CCA
MTRCHL

METAR KCHL 190118Z COR 14/  RMK PRECIP COUNTER 042.24 RH100








000
SAUS42 KCHS 190057
MTRNBC
METAR KNBC 190056Z 07010KT 4SM +RA BR BKN008 OVC026 15/14 A3003 RMK
AO2 SLP171 P0056 T01500139





000
SAUS42 KCHS 190053
MTRNBC
SPECI KNBC 190052Z 08011G19KT 4SM RA BR BKN008 BKN017 OVC023 15/14
A3004 RMK AO2 P0054





000
SAUS42 KCHS 190044
MTRNBC
SPECI KNBC 190043Z 09010G23KT 2SM +RA BR BKN008 BKN017 OVC023 15/14
A3003 RMK AO2 P0051 T01500139





000
SAUS42 KCHS 190036
MTRNBC
SPECI KNBC 190034Z 09011G19KT 1 1/2SM +RA BR BKN008 BKN017 OVC023
15/14 A3003 RMK AO2 P0044 T01500139





000
SAUS42 KCHS 190024
MTRNBC
SPECI KNBC 190023Z 09013G20KT 2 1/2SM +RA BR BKN008 BKN017 OVC023
15/14 A3003 RMK AO2 P0021 T01500139





000
NZUS52 KCHS 190012 CCA
MTRCHL

METAR KCHL 190001Z COR 14/  RMK PRECIP COUNTER 041.88 RH100








000
SAUS42 KCHS 190010
MTRNBC
SPECI KNBC 190008Z 11010KT 3SM +RA BR BKN007 BKN011 OVC019 15/14
A3001 RMK AO2 P0010 T01500139





000
SAUS42 KCHS 190005
MTRNBC
SPECI KNBC 190004Z 09016G20KT 2SM +RA BR SCT007 BKN013 OVC019 15/14
A3001 RMK AO2 P0009 T01500139





000
SAUS42 KCHS 182357
MTRNBC
METAR KNBC 182356Z 10015G22KT 2SM +RA BR BKN007 BKN013 OVC019 15/14
A3002 RMK AO2 SLP165 P0057 60245 T01500139 10167 20144 58022





000
SAUS42 KCHS 182323
MTRNBC
SPECI KNBC 182321Z 11010G17KT 2 1/2SM +RA BR OVC007 15/14 A3003 RMK
AO2 CIG 005V011 P0024 T01500139





000
SAUS42 KCHS 182311
MTRNBC
SPECI KNBC 182310Z 10010G18KT 1 3/4SM +RA BR BKN007 OVC013 15/14
A3004 RMK AO2 P0013 T01500139





000
SAUS42 KCHS 182303
MTRNBC
SPECI KNBC 182302Z 09011G18KT 2SM +RA BR BKN007 OVC013 15/14 A3004
RMK AO2 P0004 T01500139





000
SAUS42 KCHS 182257
MTRNBC
METAR KNBC 182256Z 09012G20KT 1 1/4SM +RA BR BKN006 OVC015 15/14
A3004 RMK AO2 SLP174 P0063 T01500139





000
NZUS52 KCHS 182234 CCA
MTRCHL

METAR KCHL 182222Z COR 15/  RMK PRECIP COUNTER 041.27 RH100








000
SAUS42 KCHS 182201
MTRNBC
SPECI KNBC 182200Z 07013KT 1 3/4SM +RA BR SCT006 BKN010 OVC015 15/14
A3005 RMK AO2 P0006 T01500139





000
SAUS42 KCHS 182153
MTRNBC
METAR KNBC 182153Z 06010KT 2SM +RA BR SCT006 BKN010 OVC015 15/14
A3006 RMK AO2 SLP179 P0051 T01500139





000
SAUS42 KCHS 182147
MTRNBC
SPECI KNBC 182146Z 05014KT 1 3/4SM +RA BR BKN007 OVC012 15/14 A3006
RMK AO2 P0045 T01500139





000
SAUS42 KCHS 182142
MTRNBC
SPECI KNBC 182141Z 06013KT 1 1/2SM +RA BR SCT005 BKN012 OVC020 14/14
A3006 RMK AO2 P0042 T01440139





000
SAUS42 KCHS 182115
MTRNBC
SPECI KNBC 182113Z 07012KT 1 1/2SM +RA BR FEW005 SCT014 OVC023 16/14
A3008 RMK AO2 P0016 T01560139





000
SAUS42 KCHS 182058
MTRNBC
METAR KNBC 182056Z 09012G18KT 1 1/2SM +RA BR SCT005 BKN012 OVC019
16/14 A3008 RMK AO2 SLP187 P0033 60074 T01560144 56024





000
SAUS42 KCHS 182046
MTRNBC
SPECI KNBC 182045Z 07010G17KT 2 1/2SM +RA BR BKN006 OVC012 16/14
A3009 RMK AO2 CIG 004V009 P0022 T01560139





000
SAUS42 KCHS 182035
MTRNBC
SPECI KNBC 182033Z 09008KT 3SM RA BR SCT006 BKN014 OVC025 16/14
A3008 RMK AO2 P0018 T01560139





000
SAUS42 KCHS 182028
MTRNBC
SPECI KNBC 182026Z 09007KT 2SM +RA BR BKN006 BKN014 OVC022 15/14
A3008 RMK AO2 P0017 T01500139





000
SAUS42 KCHS 182023
MTRNBC
SPECI KNBC 182022Z 11008KT 1 1/4SM +RA BR SCT007 BKN014 OVC022 15/14
A3008 RMK AO2 SFC VIS 1 3/4 P0015 T01500139





000
SAUS42 KCHS 182014
MTRNBC
SPECI KNBC 182012Z 07014KT 1 1/4SM +RA BR FEW012 OVC022 15/14 A3008
RMK AO2 SFC VIS 2 PRESFR P0009 T01500139





000
NZUS52 KCHS 182014 CCA
MTRCHL

METAR KCHL 182010Z COR 16/  RMK PRECIP COUNTER 040.82 RH100








000
SAUS42 KCHS 182006
MTRNBC
SPECI KNBC 182005Z 06009KT 1SM +RA BR FEW006 FEW014 OVC024 15/14
A3010 RMK AO2 TWR VIS 1 1/4 PRESFR P0006 T01500139





000
SAUS42 KCHS 181959
MTRNBC
SPECI KNBC 181958Z 06008KT 1 1/4SM +RA BR FEW009 OVC024 15/14 A3011
RMK AO2 SFC VIS 1 1/2 P0002 T01500139





000
SAUS42 KCHS 181957
MTRNBC
METAR KNBC 181956Z 05009KT 1SM +RA BR FEW015 OVC024 15/14 A3011 RMK
AO2 TWR VIS 1 1/4 SLP197 P0038 T01500139





000
SAUS42 KCHS 181943
MTRNBC
SPECI KNBC 181941Z 07006KT 1 1/4SM +RA BR FEW015 OVC027 16/14 A3013
RMK AO2 P0028 T01560139





000
NZUS52 KCHS 181922 CCA
MTRCHL

METAR KCHL 181915Z COR 16/  RMK PRECIP COUNTER 040.82 RH100








000
SAUS42 KCHS 181917
MTRNBC
SPECI KNBC 181916Z 07005KT 2 1/2SM +RA BR BKN028 OVC035 16/14 A3014
RMK AO2 P0006 T01560139





000
SAUS42 KCHS 181857
MTRNBC
METAR KNBC 181856Z AUTO 09008KT 3SM RA BKN034 OVC046 16/13 A3012 RMK
AO2 RAE17B41 SLP201 P0003 T01610133





000
SAUS42 KCHS 181757
MTRNBC
METAR KNBC 181756Z AUTO 10009G16KT 6SM RA FEW045 SCT050 OVC090 16/12
A3016 RMK AO2 RAE02B36 SLP212 P0001 60002 T01610122 10172 20139
58035





000
SAUS42 KCHS 181657
MTRNBC
METAR KNBC 181656Z AUTO 09012KT 10SM -RA BKN050 OVC075 16/12 A3020
RMK AO2 RAB21 SLP227 P0001 T01560117





000
SAUS42 KCHS 181557
MTRNBC
METAR KNBC 181556Z AUTO 09010KT 10SM FEW060 SCT085 BKN120 17/10
A3025 RMK AO2 RAB07E30 SLP242 P0000 T01670100





000
SAUS42 KCHS 181457
MTRNBC
METAR KNBC 181456Z AUTO 08011KT 10SM FEW047 BKN080 OVC120 16/10
A3026 RMK AO2 SLP246 T01560100 50004





000
SAUS42 KCHS 181357
MTRNBC
METAR KNBC 181356Z AUTO 08011KT 10SM FEW039 BKN050 OVC060 14/10
A3026 RMK AO2 SLP247 T01440100





000
SAUS42 KCHS 181257
MTRNBC
METAR KNBC 181256Z AUTO 08010G17KT 10SM BKN040 OVC075 14/11 A3026
RMK AO2 SLP248 T01440106





000
SAUS42 KCHS 181157
MTRNBC
METAR KNBC 181156Z AUTO 08009KT 10SM FEW044 BKN075 14/11 A3025 RMK
AO2 SLP242 T01390111 10150 20139 58004





000
SAUS42 KCHS 181105
MTRNBC
SPECI KNBC 181104Z AUTO 08010KT 10SM SCT014 BKN055 OVC075 14/12
A3025 RMK AO2 T01390117





000
SAUS42 KCHS 181057
MTRNBC
METAR KNBC 181056Z AUTO 08009KT 10SM BKN014 OVC055 14/12 A3025 RMK
AO2 SLP243 T01390117





000
SAUS42 KCHS 180957
MTRNBC
METAR KNBC 180956Z AUTO 09006KT 10SM BKN013 OVC065 14/12 A3026 RMK
AO2 SLP247 T01390117





000
SAUS42 KCHS 180955
MTRNBC
SPECI KNBC 180954Z AUTO 09008KT 10SM BKN013 OVC065 14/12 A3026 RMK
AO2





000
SAUS42 KCHS 180945
MTRNBC
SPECI KNBC 180944Z AUTO 08009KT 10SM SCT013 OVC065 14/12 A3025 RMK
AO2 T01390117





000
SAUS42 KCHS 180938
MTRNBC
SPECI KNBC 180937Z AUTO 08008KT 10SM BKN014 OVC060 14/12 A3025 RMK
AO2 T01390117





000
NZUS52 KCHS 180907
MTRCHL

METAR KCHL 180859Z COR 16/  RMK PRECIP COUNTER 040.82 RH100








000
SAUS42 KCHS 180857
MTRNBC
METAR KNBC 180856Z AUTO 08010KT 10SM OVC060 14/12 A3025 RMK AO2
SLP243 T01390117 56017





000
SAUS42 KCHS 180757
MTRNBC
METAR KNBC 180756Z AUTO 10007KT 10SM CLR 14/12 A3025 RMK AO2 SLP244
T01440117





000
SAUS42 KCHS 180657
MTRNBC
METAR KNBC 180656Z AUTO 09005KT 10SM CLR 14/12 A3028 RMK AO2 SLP253
T01440117





000
SAUS42 KCHS 180557
MTRNBC
METAR KNBC 180556Z AUTO 07005KT 10SM CLR 15/12 A3030 RMK AO2 SLP261
T01500117 10172 20150 56017





000
SAUS42 KCHS 180457
MTRNBC
METAR KNBC 180456Z AUTO 12009KT 10SM CLR 16/12 A3030 RMK AO2 SLP262
T01610117 402170078





000
SAUS42 KCHS 180357
MTRNBC
METAR KNBC 180356Z AUTO 10007G15KT 10SM CLR 16/11 A3033 RMK AO2
SLP272 T01610111





000
SAUS42 KCHS 180257
MTRNBC
METAR KNBC 180256Z AUTO 11005KT 10SM CLR 16/10 A3035 RMK AO2 SLP278
T01610100 50006





000
SAUS42 KCHS 180157
MTRNBC
METAR KNBC 180156Z AUTO 13007G16KT 10SM CLR 16/09 A3036 RMK AO2
SLP281 T01610094





000
SAUS42 KCHS 180057
MTRNBC
METAR KNBC 180056Z AUTO 13009KT 10SM CLR 16/09 A3036 RMK AO2 SLP279
T01610094





000
SAUS42 KCHS 172357
MTRNBC
METAR KNBC 172356Z AUTO 14010KT 10SM CLR 17/09 A3033 RMK AO2 SLP272
T01720089 10217 20172 50005





000
SAUS42 KCHS 172257
MTRNBC
METAR KNBC 172256Z AUTO 14009G18KT 10SM CLR 18/11 A3034 RMK AO2
SLP274 T01780106





000
NZUS52 KCHS 172208 CCA
MTRCHL

METAR KCHL 172159Z 05020KT 17/  RMK PRECIP COUNTER 040.82 RH100








000
SAUS42 KCHS 172157
MTRNBC
METAR KNBC 172156Z AUTO 17010KT 10SM CLR 19/11 A3033 RMK AO2 SLP270
T01890111





000
SAUS42 KCHS 172057
MTRNBC
METAR KNBC 172056Z AUTO 16014KT 10SM CLR 19/12 A3032 RMK AO2 SLP267
T01940117 58027





000
SAUS42 KCHS 171957
MTRNBC
METAR KNBC 171956Z 13010KT 10SM CLR 21/08 A3035 RMK AO2 SLP278
T02110083





000
SAUS42 KCHS 171857
MTRNBC
METAR KNBC 171856Z 15007KT 10SM FEW070 21/08 A3038 RMK AO2 SLP289
T02060083





000
SAUS42 KCHS 171757
MTRNBC
METAR KNBC 171756Z 12009KT 10SM FEW100 19/08 A3040 RMK AO2 SLP294
T01940078 10194 20083 58014





000
SAUS42 KCHS 171657
MTRNBC
METAR KNBC 171656Z 13008KT 10SM FEW200 17/07 A3041 RMK AO2 SLP299
T01720072





000
SAUS42 KCHS 171612
MTRNBC
METAR KNBC 171556Z COR 13009KT 10SM FEW120 SCT200 16/06 A3043 RMK
AO2 SLP306 T01560056





    US Dept of Commerce
    National Oceanic and Atmospheric Administration
    National Weather Service
    1325 East West Highway
    Silver Spring, MD 20910
    Page Author: NWS Internet Services Team
Disclaimer
Information Quality
Credits
Glossary
Privacy Policy
Freedom of Information Act (FOIA)
About Us
Career Opportunities